Aérodrome :
LOGIN :

S'inscrire | Disclaimer

   EN    FR    IT 

 










Légende :    VFR   VFR Marginal   IFR   IFR Intensif   IFR Très Intensif
Visi : 
Plafond : 
>= 8 km
>= 3000ft
5 à 8 km
1000 à 3000 ft
1500m à 5 km
500 à 1000 ft
800 à 1500m
200 à 500 ft
< 800m
< 200 ft
Symboles :   Orages  Brouillard  Fortes neiges  Fortes précipitations  Vent > 20 kt
SIGMETs :   Divers  Orages  Givrage  Turbulence  Onde Orograph.  Cendres Volcan.







- Altitude de l'aérodrome : 370 ft


EBBE - Beauvechain AB

DERNIER METAR :
  • 141825Z AUTO VRB02KT 4800 BR BKN037/// M00/M01 Q1024 GRN

METARs EXPIRÉS :
  • 141755Z AUTO VRB02KT 4600 BR OVC039/// M00/M01 Q1024 GRN
  • 141735Z AUTO 03003KT 4900 BKN039/// M00/M01 Q1024 GRN
  • 141725Z AUTO 03003KT 5000 OVC039/// M00/M02 Q1024 WHT
  • 141655Z AUTO 02003KT 5000 BKN040/// M00/M01 Q1024 WHT
  • 141640Z AUTO 01003KT 7000 OVC039/// M00/M02 Q1024 WHT
  • 141625Z AUTO 35003KT 8000 OVC039/// M00/M02 Q1024 BLU
  • 141555Z 02003KT 9999 BKN039 M00/M02 Q1024 BLU BLU

TAF TAF EBBE
Valide du 14 à 13h jusqu'au 14 à 22h UTC


141141Z 1413/1422 08005KT 8000 FEW021 BKN030
BECMG 1416/1418 9999 BKN022
Pas de NOTAMs connus pour ce terrain.



MET'MAP, la Météo Aéronautique d'un coup d'oeil ! - Copyright ORBIFLY Décembre 2007 - Disclaimer

ORBIFLY MET'MAP TEAM :

Programmation & Développement : Alexandra Zaïnal
Conception & Développement : Baudouin d'Aumeries
Co-Programmation & Développement : Marc-Olivier Méhu
Soutien technique & logistique : Manuel Goepfert

Contact : metmap@orbifly.com




SOURCES & CREDITS :

   NOAA